Time;durP1;ratioP1;P1;durP2;ratioP2;P2;SDS_P1;SDS_P2;PMS_P1;PMS_P2;Temp;Humidity;BMP_temperature;BMP_pressure;BME280_temperature;BME280_humidity;BME280_pressure;Samples;Min_cycle;Max_cycle;Signal;HPM_P1;HPM_P2
2022/01/24 00:00:07;;;;;;;12.10;8.73;;;;;;;-4.28;100.00;94340.13;2103364;28;20035;-81
2022/01/24 00:01:09;;;;;;;18.02;10.60;;;;;;;-4.35;100.00;94337.88;2102718;28;20024;-81
2022/01/24 00:02:11;;;;;;;17.77;10.13;;;;;;;-4.34;100.00;94335.00;2108027;28;20108;-80
2022/01/24 00:03:12;;;;;;;16.50;9.60;;;;;;;-4.26;100.00;94332.75;2115018;28;20054;-81
2022/01/24 00:04:13;;;;;;;15.52;9.77;;;;;;;-4.33;100.00;94330.56;2106726;28;20101;-80
2022/01/24 00:05:17;;;;;;;16.27;10.35;;;;;;;-4.36;100.00;94331.91;2106506;28;20027;-80
2022/01/24 00:06:18;;;;;;;16.00;9.75;;;;;;;-4.38;100.00;94334.03;2112150;28;20096;-81
2022/01/24 00:07:22;;;;;;;14.48;8.93;;;;;;;-4.40;100.00;94336.16;2103530;28;20744;-81
2022/01/24 00:08:23;;;;;;;14.38;9.95;;;;;;;-4.40;100.00;94330.16;2103567;28;20043;-81
2022/01/24 00:09:24;;;;;;;15.85;9.95;;;;;;;-4.38;100.00;94328.06;2093267;28;20020;-81
2022/01/24 00:10:27;;;;;;;16.27;9.95;;;;;;;-4.40;100.00;94322.34;2094347;28;20025;-81
2022/01/24 00:11:43;;;;;;;17.80;10.07;;;;;;;-4.43;100.00;94320.34;2098175;28;20020;-81
2022/01/24 00:17:32;;;;;;;16.92;9.88;;;;;;;-4.44;100.00;94323.97;2111363;27;20081;-80
2022/01/24 00:26:47;;;;;;;;;;;;;;;-4.64;100.00;94320.72;2113800;27;19924;-81
2022/01/24 00:27:50;;;;;;;11.00;6.70;;;;;;;-4.63;100.00;94319.66;2102726;28;19908;-81
2022/01/24 00:28:51;;;;;;;12.82;7.38;;;;;;;-4.69;100.00;94322.66;2102611;27;20028;-81
2022/01/24 00:29:53;;;;;;;12.68;8.40;;;;;;;-4.55;100.00;94320.81;2110548;28;20463;-80
2022/01/24 00:30:56;;;;;;;14.35;8.88;;;;;;;-4.56;100.00;94324.50;2105218;28;20020;-81
2022/01/24 00:31:58;;;;;;;12.55;8.38;;;;;;;-4.47;100.00;94316.75;2102299;28;20384;-81
2022/01/24 00:32:59;;;;;;;16.88;9.50;;;;;;;-4.62;100.00;94313.34;2094114;28;20048;-80
2022/01/24 00:34:01;;;;;;;14.80;9.02;;;;;;;-4.72;100.00;94321.38;2089704;28;20079;-81
2022/01/24 00:35:04;;;;;;;16.92;9.50;;;;;;;-4.59;100.00;94319.84;2090372;28;20049;-80
2022/01/24 00:36:11;;;;;;;13.48;8.88;;;;;;;-4.67;100.00;94320.53;2091760;28;20067;-80
2022/01/24 00:37:18;;;;;;;14.82;9.60;;;;;;;-4.66;100.00;94320.22;2099643;28;20063;-80
2022/01/24 00:38:20;;;;;;;13.63;9.07;;;;;;;-4.81;100.00;94315.31;2107338;28;20020;-81
2022/01/24 00:39:24;;;;;;;13.95;9.02;;;;;;;-4.89;100.00;94321.19;2114677;28;20030;-80
2022/01/24 00:40:35;;;;;;;17.00;9.40;;;;;;;-4.64;100.00;94318.09;2094906;28;20036;-81
2022/01/24 00:41:49;;;;;;;15.27;9.30;;;;;;;-4.70;100.00;94318.47;2111025;28;20495;-80
2022/01/24 00:42:55;;;;;;;15.27;9.02;;;;;;;-4.77;100.00;94321.47;2113535;28;20034;-80
2022/01/24 00:45:54;;;;;;;14.95;9.15;;;;;;;-4.88;100.00;94307.84;2095231;28;20062;-81
2022/01/24 00:46:53;;;;;;;15.30;9.50;;;;;;;-4.84;100.00;94308.81;2110440;27;20096;-80
2022/01/24 00:49:19;;;;;;;18.70;10.40;;;;;;;-4.74;100.00;94307.88;2099304;28;20021;-80
2022/01/24 00:55:35;;;;;;;15.25;9.23;;;;;;;-4.82;100.00;94306.72;2110356;27;20027;-81
2022/01/24 00:56:36;;;;;;;17.45;9.45;;;;;;;-4.78;100.00;94306.91;2109431;28;20055;-80
2022/01/24 00:57:37;;;;;;;14.93;8.48;;;;;;;-4.87;100.00;94314.63;2089557;28;20139;-80
2022/01/24 00:58:38;;;;;;;12.98;8.35;;;;;;;-4.96;100.00;94307.75;2093673;28;20108;-80
2022/01/24 00:59:39;;;;;;;16.92;8.90;;;;;;;-4.81;100.00;94303.03;2103412;28;20015;-80
2022/01/24 01:00:40;;;;;;;15.43;9.38;;;;;;;-5.00;100.00;94304.16;2101753;28;20023;-80
2022/01/24 01:01:42;;;;;;;15.35;8.70;;;;;;;-5.01;100.00;94313.06;2100265;28;20024;-80
2022/01/24 01:02:43;;;;;;;16.80;8.80;;;;;;;-4.96;100.00;94310.34;2089454;28;20021;-80
2022/01/24 01:03:48;;;;;;;16.50;9.40;;;;;;;-4.94;100.00;94303.03;2096030;28;20097;-79
2022/01/24 01:07:03;;;;;;;11.75;8.50;;;;;;;-4.97;100.00;94299.16;2115121;27;20030;-79
2022/01/24 01:18:26;;;;;;;12.05;7.55;;;;;;;-5.03;100.00;94296.94;2106300;28;20042;-80
2022/01/24 01:19:28;;;;;;;12.63;7.72;;;;;;;-5.04;100.00;94290.97;2097431;28;20425;-80
2022/01/24 01:20:36;;;;;;;15.32;8.50;;;;;;;-5.01;100.00;94297.41;2081186;28;20031;-80
2022/01/24 01:21:37;;;;;;;13.82;8.63;;;;;;;-5.03;100.00;94295.09;2091532;28;20035;-81
2022/01/24 01:22:38;;;;;;;14.63;8.38;;;;;;;-5.04;100.00;94292.78;2089467;28;20025;-81
2022/01/24 01:23:45;;;;;;;14.95;8.68;;;;;;;-5.08;100.00;94289.97;2089436;28;20342;-80
2022/01/24 01:24:51;;;;;;;14.63;8.57;;;;;;;-5.18;100.00;94297.97;2101856;28;20030;-80
2022/01/24 01:25:55;;;;;;;13.25;8.40;;;;;;;-5.16;100.00;94285.44;2096060;28;20024;-80
2022/01/24 01:27:15;;;;;;;13.25;8.55;;;;;;;-5.27;100.00;94294.47;2106495;27;20028;-81
2022/01/24 01:28:31;;;;;;;15.82;8.48;;;;;;;-5.27;100.00;94292.63;2114018;28;20472;-81
2022/01/24 01:29:48;;;;;;;15.18;8.55;;;;;;;-5.11;100.00;94299.13;2102374;28;20529;-80
2022/01/24 01:30:55;;;;;;;12.77;7.97;;;;;;;-5.11;100.00;94287.94;2102119;28;20107;-80
2022/01/24 01:33:14;;;;;;;13.63;8.57;;;;;;;-5.26;100.00;94285.63;2107529;27;20024;-80
2022/01/24 01:36:19;;;;;;;13.18;7.75;;;;;;;-5.27;100.00;94286.66;2070099;28;20025;-80
2022/01/24 01:52:48;;;;;;;16.15;7.80;;;;;;;-5.38;100.00;94278.25;2119420;27;20380;-80
2022/01/24 01:54:11;;;;;;;15.38;6.97;;;;;;;-5.45;100.00;94278.63;2107401;28;20056;-80
2022/01/24 01:56:32;;;;;;;12.18;7.55;;;;;;;-5.51;100.00;94284.22;2112478;28;20418;-80
2022/01/24 01:57:33;;;;;;;12.18;6.93;;;;;;;-5.48;100.00;94287.03;2109583;28;20024;-80
2022/01/24 01:58:36;;;;;;;12.30;6.63;;;;;;;-5.50;100.00;94281.31;2089274;28;20174;-80
2022/01/24 01:59:37;;;;;;;12.88;7.60;;;;;;;-5.51;100.00;94282.38;2093593;28;20073;-80
2022/01/24 02:00:45;;;;;;;12.50;6.88;;;;;;;-5.60;100.00;94278.88;2105802;28;20031;-80
2022/01/24 02:01:46;;;;;;;11.95;6.88;;;;;;;-5.62;100.00;94284.38;2108336;28;20087;-80
2022/01/24 02:02:47;;;;;;;11.65;6.82;;;;;;;-5.52;100.00;94267.81;2112093;28;20088;-79
2022/01/24 02:03:50;;;;;;;13.10;6.75;;;;;;;-5.69;100.00;94278.75;2097543;28;20047;-81
2022/01/24 02:04:51;;;;;;;11.32;6.88;;;;;;;-5.69;100.00;94276.16;2099169;28;20024;-81
2022/01/24 02:05:52;;;;;;;14.43;7.72;;;;;;;-5.72;100.00;94276.72;2111776;28;20020;-81
2022/01/24 02:06:57;;;;;;;11.07;7.22;;;;;;;-5.71;100.00;94275.66;2098411;28;20112;-80
2022/01/24 02:07:58;;;;;;;11.02;6.72;;;;;;;-5.74;100.00;94280.66;2104056;28;20059;-80
2022/01/24 02:10:41;;;;;;;12.57;6.63;;;;;;;-5.76;100.00;94285.38;2139438;27;20169;-80
2022/01/24 02:11:47;;;;;;;14.77;7.15;;;;;;;-5.72;100.00;94274.09;2115524;28;20033;-80
2022/01/24 02:12:51;;;;;;;12.43;7.75;;;;;;;-5.73;100.00;94277.78;2104340;28;20342;-80
2022/01/24 02:13:52;;;;;;;10.63;6.63;;;;;;;-5.60;100.00;94274.44;2098358;28;20453;-80
2022/01/24 02:14:58;;;;;;;12.38;7.88;;;;;;;-5.65;100.00;94269.31;2103542;28;20035;-80
2022/01/24 02:17:15;;;;;;;11.63;7.43;;;;;;;-5.56;100.00;94279.84;2113444;28;20105;-80
2022/01/24 02:18:35;;;;;;;12.05;7.43;;;;;;;-5.68;100.00;94269.09;2114728;28;20485;-80
2022/01/24 02:23:15;;;;;;;12.88;7.05;;;;;;;-5.64;100.00;94275.28;2117966;27;20106;-80
2022/01/24 02:23:47;;;;;;;13.27;7.00;;;;;;;-5.52;100.00;94272.25;2116330;27;20035;-80
2022/01/24 02:25:06;;;;;;;11.70;7.30;;;;;;;-5.62;100.00;94273.16;2119859;28;20027;-80
2022/01/24 02:26:12;;;;;;;12.90;7.13;;;;;;;-5.62;100.00;94273.97;2107205;28;20052;-80
2022/01/24 02:27:15;;;;;;;14.45;6.85;;;;;;;-5.68;100.00;94267.28;2107557;27;20073;-79
2022/01/24 02:28:18;;;;;;;12.20;6.95;;;;;;;-5.62;100.00;94273.97;2119226;28;20023;-80
2022/01/24 02:29:32;;;;;;;13.98;6.80;;;;;;;-5.67;100.00;94268.81;2107604;27;20031;-80
2022/01/24 02:31:07;;;;;;;11.70;6.88;;;;;;;-5.65;100.00;94268.53;2116773;28;20047;-79
2022/01/24 02:32:13;;;;;;;13.20;6.82;;;;;;;-5.85;100.00;94274.84;2118626;27;20053;-80
2022/01/24 02:33:17;;;;;;;12.75;7.32;;;;;;;-5.90;100.00;94272.31;2111726;28;20031;-80
2022/01/24 02:34:37;;;;;;;12.02;7.25;;;;;;;-5.92;100.00;94277.06;2109874;27;20428;-81
2022/01/24 02:35:42;;;;;;;11.45;7.13;;;;;;;-5.90;100.00;94269.72;2109670;28;20062;-81
2022/01/24 02:36:49;;;;;;;10.65;6.65;;;;;;;-5.90;100.00;94272.31;2098154;28;20021;-81
2022/01/24 02:37:56;;;;;;;13.43;7.43;;;;;;;-5.58;100.00;94269.69;2122345;27;20066;-81
2022/01/24 02:40:24;;;;;;;12.65;7.80;;;;;;;-5.96;100.00;94270.88;2124236;27;20024;-81
2022/01/24 02:49:30;;;;;;;14.45;7.80;;;;;;;-5.96;100.00;94270.88;2129710;27;20023;-80
2022/01/24 02:52:07;;;;;;;10.80;6.57;;;;;;;-5.90;100.00;94267.88;2127045;27;20023;-80
2022/01/24 02:53:15;;;;;;;13.60;7.75;;;;;;;-5.97;100.00;94267.50;2120580;28;20085;-80
2022/01/24 02:54:24;;;;;;;13.27;7.22;;;;;;;-5.99;100.00;94268.84;2105494;28;20016;-80
2022/01/24 02:55:26;;;;;;;10.90;6.35;;;;;;;-6.02;100.00;94274.59;2111770;28;20495;-80
2022/01/24 02:56:27;;;;;;;13.50;6.60;;;;;;;-5.88;100.00;94267.59;2109354;28;20074;-80
2022/01/24 02:57:32;;;;;;;10.60;6.90;;;;;;;-5.94;100.00;94266.16;2099682;28;20106;-80
2022/01/24 02:58:36;;;;;;;12.82;6.80;;;;;;;-5.78;100.00;94272.66;2109393;28;20024;-80
2022/01/24 02:59:37;;;;;;;13.43;6.85;;;;;;;-5.85;100.00;94272.22;2113984;28;20110;-80
2022/01/24 03:00:41;;;;;;;13.93;7.82;;;;;;;-5.91;100.00;94262.97;2112740;27;20360;-80
2022/01/24 03:01:47;;;;;;;13.00;6.78;;;;;;;-5.87;100.00;94269.16;2115633;28;20023;-80
2022/01/24 03:02:48;;;;;;;12.77;7.13;;;;;;;-5.84;100.00;94265.97;2119847;27;20031;-79
2022/01/24 03:03:50;;;;;;;11.82;7.13;;;;;;;-5.94;100.00;94273.97;2120970;27;20106;-80
2022/01/24 03:04:54;;;;;;;10.07;6.38;;;;;;;-5.85;100.00;94269.63;2103884;28;20028;-80
2022/01/24 03:05:59;;;;;;;12.18;6.97;;;;;;;-6.09;100.00;94262.72;2104858;28;20035;-80
2022/01/24 03:07:03;;;;;;;15.40;7.32;;;;;;;-6.00;100.00;94256.88;2112549;28;20112;-80
2022/01/24 03:08:14;;;;;;;13.02;6.72;;;;;;;-6.11;100.00;94266.66;2104764;28;20030;-80
2022/01/24 03:09:16;;;;;;;13.13;7.18;;;;;;;-6.10;100.00;94266.38;2112220;28;20160;-80
2022/01/24 03:10:30;;;;;;;11.20;6.90;;;;;;;-6.21;100.00;94257.16;2097780;28;20131;-80
2022/01/24 03:13:41;;;;;;;11.02;6.13;;;;;;;-5.98;100.00;94259.97;2114822;28;20023;-80
2022/01/24 03:14:32;;;;;;;15.40;6.93;;;;;;;-6.11;100.00;94257.03;2111237;27;20046;-80
2022/01/24 03:15:36;;;;;;;11.20;6.07;;;;;;;-6.02;100.00;94262.34;2108198;28;20044;-80
2022/01/24 03:16:37;;;;;;;10.98;6.85;;;;;;;-6.00;100.00;94264.69;2093342;28;20132;-80
2022/01/24 03:17:39;;;;;;;12.07;6.90;;;;;;;-5.98;100.00;94252.94;2091003;28;20029;-80
2022/01/24 03:18:40;;;;;;;13.32;7.55;;;;;;;-6.02;100.00;94262.34;2091719;28;20027;-80
2022/01/24 03:19:43;;;;;;;13.18;7.60;;;;;;;-6.00;100.00;94257.66;2109572;28;20016;-80
2022/01/24 03:20:47;;;;;;;12.55;7.10;;;;;;;-6.05;100.00;94256.97;2112284;28;20421;-80
2022/01/24 03:21:53;;;;;;;11.82;6.90;;;;;;;-5.98;100.00;94258.13;2091703;28;20095;-80
2022/01/24 03:22:57;;;;;;;13.90;7.78;;;;;;;-6.10;100.00;94261.19;2099007;28;20125;-80
2022/01/24 03:24:02;;;;;;;12.60;7.00;;;;;;;-6.17;100.00;94258.16;2098941;28;20048;-80
2022/01/24 03:25:07;;;;;;;11.88;7.47;;;;;;;-6.06;100.00;94258.78;2083483;28;20148;-80
2022/01/24 03:26:08;;;;;;;12.35;7.18;;;;;;;-6.08;100.00;94255.69;2091379;28;20021;-80
2022/01/24 03:27:09;;;;;;;13.68;7.28;;;;;;;-6.03;100.00;94260.03;2090022;28;20029;-80
2022/01/24 03:28:11;;;;;;;13.25;7.88;;;;;;;-6.09;100.00;94252.31;2105812;28;20042;-80
2022/01/24 03:29:12;;;;;;;12.05;6.80;;;;;;;-6.12;100.00;94250.28;2099940;28;20025;-80
2022/01/24 03:30:13;;;;;;;11.02;6.85;;;;;;;-6.13;100.00;94263.56;2097150;28;20028;-80
2022/01/24 03:31:14;;;;;;;10.18;6.40;;;;;;;-6.09;100.00;94252.31;2091971;28;20358;-80
2022/01/24 03:32:19;;;;;;;13.32;7.43;;;;;;;-5.94;100.00;94256.50;2096466;28;20032;-80
2022/01/24 03:33:22;;;;;;;12.02;6.93;;;;;;;-6.05;100.00;94257.72;2093173;28;20029;-80
2022/01/24 03:34:30;;;;;;;10.80;6.70;;;;;;;-6.07;100.00;94248.66;2087944;28;20106;-80
2022/01/24 03:35:40;;;;;;;13.73;7.32;;;;;;;-6.09;100.00;94254.91;2091767;28;20465;-80
2022/01/24 03:36:45;;;;;;;12.05;7.05;;;;;;;-6.07;100.00;94256.47;2088406;28;20025;-80
2022/01/24 03:37:50;;;;;;;11.95;7.10;;;;;;;-6.01;100.00;94250.91;2099739;28;20075;-79
2022/01/24 03:38:51;;;;;;;10.30;6.53;;;;;;;-6.17;100.00;94249.59;2107377;28;20020;-79
2022/01/24 03:39:58;;;;;;;12.13;6.65;;;;;;;-6.13;100.00;94255.78;2107766;28;20646;-79
2022/01/24 03:41:01;;;;;;;11.05;6.68;;;;;;;-6.12;100.00;94257.31;2106204;28;20485;-80
2022/01/24 03:42:11;;;;;;;11.35;6.95;;;;;;;-6.20;100.00;94253.50;2098470;28;20055;-80
2022/01/24 03:43:17;;;;;;;11.82;6.93;;;;;;;-6.21;100.00;94246.75;2100746;28;20070;-80
2022/01/24 03:44:24;;;;;;;13.57;6.55;;;;;;;-6.31;100.00;94243.53;2099011;28;20378;-80
2022/01/24 03:45:38;;;;;;;13.77;7.40;;;;;;;-6.23;100.00;94248.09;2104603;28;20024;-80
2022/01/24 03:47:02;;;;;;;11.48;6.93;;;;;;;-6.16;100.00;94241.47;2103387;28;20016;-80
2022/01/24 03:50:49;;;;;;;10.73;6.13;;;;;;;-6.27;100.00;94250.50;2106986;28;20477;-80
2022/01/24 03:51:54;;;;;;;11.55;6.90;;;;;;;-6.01;100.00;94244.91;2106721;28;20024;-80
2022/01/24 03:52:55;;;;;;;9.55;6.28;;;;;;;-6.29;100.00;94255.19;2090828;28;20535;-79
2022/01/24 03:54:00;;;;;;;10.25;6.28;;;;;;;-6.27;100.00;94250.50;2098365;28;20035;-79
2022/01/24 03:55:03;;;;;;;11.75;6.57;;;;;;;-6.40;100.00;94251.22;2091224;28;20025;-80
2022/01/24 03:56:08;;;;;;;12.70;7.05;;;;;;;-6.27;100.00;94247.13;2098605;28;20032;-80
2022/01/24 03:57:16;;;;;;;13.02;6.82;;;;;;;-6.25;100.00;94260.63;2094247;28;20013;-79
2022/01/24 03:58:17;;;;;;;11.48;6.55;;;;;;;-6.30;100.00;94258.88;2093035;28;20513;-80
2022/01/24 03:59:18;;;;;;;11.02;6.55;;;;;;;-6.31;100.00;94254.72;2087910;28;20032;-80
2022/01/24 04:00:20;;;;;;;12.55;6.97;;;;;;;-6.26;100.00;94259.84;2092512;28;20028;-80
2022/01/24 04:01:22;;;;;;;12.95;6.53;;;;;;;-6.27;100.00;94255.72;2098595;28;20024;-80
2022/01/24 04:02:26;;;;;;;10.50;6.30;;;;;;;-6.25;100.00;94250.22;2095616;28;20035;-80
2022/01/24 04:03:27;;;;;;;11.85;6.78;;;;;;;-6.20;100.00;94257.94;2101968;28;20484;-80
2022/01/24 04:04:29;;;;;;;13.77;7.32;;;;;;;-6.11;100.00;94248.44;2110555;28;20032;-80
2022/01/24 04:05:30;;;;;;;11.57;6.60;;;;;;;-6.22;100.00;94244.47;2102551;28;20016;-80
2022/01/24 04:06:31;;;;;;;10.82;5.97;;;;;;;-6.24;100.00;94251.75;2081821;28;20021;-80
2022/01/24 04:07:33;;;;;;;12.60;7.38;;;;;;;-6.31;100.00;94252.13;2093912;28;20016;-80
2022/01/24 04:08:34;;;;;;;10.90;5.57;;;;;;;-6.29;100.00;94246.63;2102394;28;20020;-80
2022/01/24 04:09:38;;;;;;;11.38;6.72;;;;;;;-6.29;100.00;94249.22;2102545;28;20024;-80
2022/01/24 04:10:44;;;;;;;13.82;7.55;;;;;;;-6.24;100.00;94252.53;2094161;28;20441;-80
2022/01/24 04:11:48;;;;;;;11.15;6.90;;;;;;;-6.27;100.00;94245.31;2103917;28;20074;-80
2022/01/24 04:12:51;;;;;;;11.57;6.78;;;;;;;-6.28;100.00;94251.53;2090316;28;20039;-80
2022/01/24 04:13:58;;;;;;;14.57;6.85;;;;;;;-6.28;100.00;94245.56;2096961;28;20032;-80
2022/01/24 04:15:23;;;;;;;15.00;7.85;;;;;;;-6.37;100.00;94241.00;2083882;28;20510;-80
2022/01/24 04:16:32;;;;;;;11.57;6.53;;;;;;;-6.26;100.00;94239.03;2102119;28;20027;-80
2022/01/24 04:17:46;;;;;;;11.82;6.57;;;;;;;-6.32;100.00;94236.78;2098091;28;20020;-80
2022/01/24 04:21:21;;;;;;;11.90;6.07;;;;;;;-6.32;100.00;94237.56;2111144;27;20024;-80
2022/01/24 04:22:35;;;;;;;13.07;6.53;;;;;;;-6.40;100.00;94238.22;2103738;28;20404;-80
2022/01/24 04:23:40;;;;;;;8.52;5.55;;;;;;;-6.44;100.00;94239.81;2089273;28;20381;-80
2022/01/24 04:24:43;;;;;;;10.13;6.47;;;;;;;-6.45;100.00;94241.66;2094351;28;20417;-80
2022/01/24 04:25:47;;;;;;;11.48;5.88;;;;;;;-6.42;100.00;94233.25;2095935;28;20032;-80
2022/01/24 04:26:53;;;;;;;10.82;6.47;;;;;;;-6.36;100.00;94239.19;2114943;28;20027;-80
2022/01/24 04:27:55;;;;;;;8.75;5.97;;;;;;;-6.37;100.00;94228.00;2106492;28;20077;-80
2022/01/24 04:28:57;;;;;;;9.88;6.70;;;;;;;-6.46;100.00;94234.09;2098234;28;20063;-80
2022/01/24 04:29:58;;;;;;;11.00;5.95;;;;;;;-6.41;100.00;94236.63;2098127;28;20134;-80
2022/01/24 04:30:59;;;;;;;11.27;6.80;;;;;;;-6.46;100.00;94234.09;2090537;28;20025;-80
2022/01/24 04:32:02;;;;;;;11.35;6.43;;;;;;;-6.42;100.00;94235.88;2101851;28;20032;-80
2022/01/24 04:33:03;;;;;;;11.40;6.32;;;;;;;-6.47;100.00;94243.75;2093243;28;20032;-80
2022/01/24 04:34:04;;;;;;;11.25;6.50;;;;;;;-6.50;100.00;94238.31;2097472;28;20473;-80
2022/01/24 04:35:06;;;;;;;10.65;6.35;;;;;;;-6.51;100.00;94241.97;2098105;28;20076;-80
2022/01/24 04:36:13;;;;;;;10.52;6.00;;;;;;;-6.53;100.00;94244.88;2097692;28;20036;-80
2022/01/24 04:37:16;;;;;;;10.20;5.60;;;;;;;-6.52;100.00;94248.25;2090471;28;20437;-80
2022/01/24 04:38:17;;;;;;;11.73;6.43;;;;;;;-6.40;100.00;94248.59;2081977;28;20359;-79
2022/01/24 04:39:20;;;;;;;12.20;6.57;;;;;;;-6.42;100.00;94245.50;2081765;28;20112;-79
2022/01/24 04:40:21;;;;;;;11.18;6.57;;;;;;;-6.35;100.00;94249.31;2100673;28;20430;-79
2022/01/24 04:41:27;;;;;;;8.50;5.80;;;;;;;-6.18;100.00;94251.41;2110283;28;20126;-79
2022/01/24 04:42:39;;;;;;;12.50;6.63;;;;;;;-6.35;100.00;94246.69;2098114;28;20027;-79
2022/01/24 04:45:09;;;;;;;11.02;6.25;;;;;;;-6.46;100.00;94241.91;2113224;28;20062;-79
2022/01/24 04:47:35;;;;;;;15.07;8.93;;;;;;;-6.49;100.00;94226.91;2105187;28;20059;-80
2022/01/24 04:54:44;;;;;;;14.65;8.85;;;;;;;-6.62;100.00;94226.53;2114871;28;20106;-79
2022/01/24 04:55:45;;;;;;;15.30;9.02;;;;;;;-6.48;100.00;94218.78;2102290;28;20032;-80
2022/01/24 04:56:46;;;;;;;12.48;7.95;;;;;;;-6.53;100.00;94223.31;2100442;28;20067;-80
2022/01/24 04:57:47;;;;;;;13.63;7.53;;;;;;;-6.64;100.00;94218.22;2091784;28;20029;-80
2022/01/24 04:58:48;;;;;;;14.63;8.38;;;;;;;-6.64;100.00;94218.22;2089630;28;20025;-79
2022/01/24 04:59:51;;;;;;;12.82;7.43;;;;;;;-6.63;100.00;94226.78;2105643;28;20709;-80
2022/01/24 05:00:52;;;;;;;12.82;7.82;;;;;;;-6.65;100.00;94216.69;2083377;28;20037;-79
2022/01/24 05:01:53;;;;;;;13.32;7.00;;;;;;;-6.67;100.00;94223.19;2088092;28;20088;-80
2022/01/24 05:02:54;;;;;;;13.85;7.47;;;;;;;-6.65;100.00;94229.69;2091047;28;20057;-80
2022/01/24 05:03:55;;;;;;;15.35;7.93;;;;;;;-6.60;100.00;94223.63;2096335;28;20523;-80
2022/01/24 05:04:59;;;;;;;13.80;7.65;;;;;;;-6.49;100.00;94222.47;2098849;28;20020;-80
2022/01/24 05:06:00;;;;;;;12.15;7.82;;;;;;;-6.44;100.00;94217.19;2112735;28;20049;-80
2022/01/24 05:07:02;;;;;;;16.42;7.75;;;;;;;-6.40;100.00;94218.16;2105790;28;20064;-80
2022/01/24 05:08:05;;;;;;;12.75;7.38;;;;;;;-6.60;100.00;94224.41;2089459;28;20082;-80
2022/01/24 05:09:07;;;;;;;12.02;6.80;;;;;;;-6.44;100.00;94222.38;2090563;28;20053;-80
2022/01/24 05:10:18;;;;;;;10.32;6.68;;;;;;;-6.46;100.00;94234.88;2096629;28;20051;-80
2022/01/24 05:11:25;;;;;;;9.68;5.82;;;;;;;-6.44;100.00;94226.81;2092835;28;20048;-80
2022/01/24 05:21:29;;;;;;;11.50;6.35;;;;;;;-6.58;100.00;94224.16;2101173;28;20032;-80
2022/01/24 05:24:22;;;;;;;11.82;6.68;;;;;;;-6.56;100.00;94229.81;2108520;28;20035;-80
2022/01/24 05:25:24;;;;;;;11.55;7.25;;;;;;;-6.60;100.00;94229.59;2094435;28;20058;-80
2022/01/24 05:26:25;;;;;;;11.32;5.60;;;;;;;-6.55;100.00;94228.75;2083773;28;20256;-80
2022/01/24 05:27:26;;;;;;;13.05;7.63;;;;;;;-6.53;100.00;94226.69;2094182;28;20024;-80
2022/01/24 05:28:29;;;;;;;10.13;6.68;;;;;;;-6.60;100.00;94224.41;2094204;28;20552;-80
2022/01/24 05:29:30;;;;;;;12.73;6.93;;;;;;;-6.65;100.00;94228.91;2092966;28;20024;-79
2022/01/24 05:30:31;;;;;;;11.82;6.85;;;;;;;-6.45;100.00;94227.84;2084846;28;20073;-80
2022/01/24 05:31:32;;;;;;;10.85;6.32;;;;;;;-6.60;100.00;94229.59;2085064;28;20104;-79
2022/01/24 05:32:36;;;;;;;11.40;6.50;;;;;;;-6.36;100.00;94226.19;2093212;28;20475;-79
2022/01/24 05:33:37;;;;;;;10.05;6.10;;;;;;;-6.44;100.00;94226.81;2096908;28;20016;-80
2022/01/24 05:34:39;;;;;;;9.38;5.82;;;;;;;-6.61;100.00;94233.25;2089044;28;20021;-80
2022/01/24 05:35:40;;;;;;;11.02;6.13;;;;;;;-6.63;100.00;94238.00;2089267;28;20211;-79
2022/01/24 05:36:41;;;;;;;11.65;6.18;;;;;;;-6.64;100.00;94239.03;2089136;28;20024;-80
2022/01/24 05:37:42;;;;;;;9.88;6.05;;;;;;;-6.61;100.00;94241.06;2097716;28;20024;-79
2022/01/24 05:38:43;;;;;;;9.57;5.85;;;;;;;-6.64;100.00;94233.81;2113784;28;20056;-80
2022/01/24 05:39:45;;;;;;;10.48;5.90;;;;;;;-6.58;100.00;94239.75;2098285;28;20032;-80
2022/01/24 05:40:46;;;;;;;12.88;6.45;;;;;;;-6.64;100.00;94238.25;2091508;28;20449;-80
2022/01/24 05:41:47;;;;;;;9.35;6.05;;;;;;;-6.65;100.00;94240.06;2091639;28;20571;-80
2022/01/24 05:42:48;;;;;;;10.35;6.32;;;;;;;-6.71;100.00;94246.41;2091492;28;20362;-80
2022/01/24 05:43:49;;;;;;;8.90;5.70;;;;;;;-6.73;100.00;94239.94;2093331;28;20024;-80
2022/01/24 05:44:52;;;;;;;10.15;6.35;;;;;;;-6.78;100.00;94247.78;2086269;28;20101;-79
2022/01/24 05:45:53;;;;;;;11.60;6.07;;;;;;;-6.76;100.00;94245.69;2095037;28;20469;-79
2022/01/24 05:46:54;;;;;;;12.43;6.47;;;;;;;-6.70;100.00;94249.78;2100233;28;20032;-79
2022/01/24 05:47:55;;;;;;;11.00;6.47;;;;;;;-6.69;100.00;94240.91;2102611;28;20051;-80
2022/01/24 05:48:56;;;;;;;9.73;6.35;;;;;;;-6.56;100.00;94242.06;2084555;28;20072;-79
2022/01/24 05:49:57;;;;;;;10.98;6.32;;;;;;;-6.65;100.00;94254.91;2104019;28;20024;-80
2022/01/24 05:50:58;;;;;;;9.40;5.80;;;;;;;-6.68;100.00;94248.44;2099333;28;20432;-80
2022/01/24 05:51:59;;;;;;;9.40;5.88;;;;;;;-6.69;100.00;94251.31;2082444;28;20017;-80
2022/01/24 05:53:00;;;;;;;12.85;6.15;;;;;;;-6.67;100.00;94238.81;2094655;28;20047;-80
2022/01/24 05:54:02;;;;;;;12.63;6.95;;;;;;;-6.74;100.00;94248.78;2089840;28;20112;-80
2022/01/24 05:55:05;;;;;;;10.25;6.18;;;;;;;-6.80;100.00;94252.47;2087550;28;20089;-80
2022/01/24 05:56:06;;;;;;;11.13;6.40;;;;;;;-6.69;100.00;94254.69;2097926;28;20020;-80
2022/01/24 05:57:07;;;;;;;11.40;5.90;;;;;;;-6.71;100.00;94251.59;2108216;28;20046;-80
2022/01/24 05:58:11;;;;;;;11.13;6.50;;;;;;;-6.74;100.00;94251.38;2104005;28;20030;-81
2022/01/24 05:59:12;;;;;;;10.90;6.03;;;;;;;-6.79;100.00;94249.63;2092472;28;20154;-80
2022/01/24 06:00:14;;;;;;;12.30;5.82;;;;;;;-6.77;100.00;94255.31;2089011;28;20059;-80
2022/01/24 06:01:15;;;;;;;10.57;6.43;;;;;;;-6.79;100.00;94252.22;2083904;28;20635;-80
2022/01/24 06:02:16;;;;;;;11.55;6.43;;;;;;;-6.74;100.00;94249.56;2094190;28;20025;-80
2022/01/24 06:03:18;;;;;;;11.88;6.55;;;;;;;-6.76;100.00;94253.47;2092390;28;20024;-80
2022/01/24 06:04:19;;;;;;;10.07;5.60;;;;;;;-6.60;100.00;94254.84;2086070;28;20562;-80
2022/01/24 06:05:20;;;;;;;10.15;5.95;;;;;;;-6.62;100.00;94249.94;2088221;28;20060;-80
2022/01/24 06:06:21;;;;;;;12.45;7.18;;;;;;;-6.71;100.00;94256.03;2090679;28;20378;-80
2022/01/24 06:07:22;;;;;;;12.10;6.35;;;;;;;-6.75;100.00;94255.81;2110435;28;20165;-80
2022/01/24 06:08:23;;;;;;;9.75;6.25;;;;;;;-6.82;100.00;94257.19;2107067;28;20051;-80
2022/01/24 06:09:25;;;;;;;9.95;5.90;;;;;;;-6.79;100.00;94257.41;2101613;28;20697;-80
2022/01/24 06:10:26;;;;;;;11.70;6.38;;;;;;;-6.78;100.00;94266.75;2082281;28;20047;-80
2022/01/24 06:11:27;;;;;;;15.00;6.53;;;;;;;-6.75;100.00;94258.41;2093486;28;20531;-80
2022/01/24 06:12:28;;;;;;;9.45;5.68;;;;;;;-6.84;100.00;94260.09;2092605;28;20021;-80
2022/01/24 06:13:31;;;;;;;11.18;5.78;;;;;;;-6.78;100.00;94266.00;2099908;28;20027;-80
2022/01/24 06:14:32;;;;;;;9.48;6.30;;;;;;;-6.91;100.00;94270.81;2092717;28;20025;-80
2022/01/24 06:15:34;;;;;;;11.35;6.15;;;;;;;-6.94;100.00;94270.56;2092159;28;20032;-80
2022/01/24 06:16:43;;;;;;;11.57;6.35;;;;;;;-6.91;100.00;94265.59;2092451;28;20367;-80
2022/01/24 06:17:44;;;;;;;11.85;6.38;;;;;;;-6.91;100.00;94257.81;2088098;28;20437;-80
2022/01/24 06:18:45;;;;;;;11.13;6.15;;;;;;;-6.89;100.00;94265.31;2088241;28;20624;-80
2022/01/24 06:19:47;;;;;;;13.43;6.70;;;;;;;-7.01;100.00;94264.97;2082102;28;20656;-80
2022/01/24 06:20:48;;;;;;;11.20;5.60;;;;;;;-6.95;100.00;94267.22;2093843;28;20107;-80
2022/01/24 06:21:49;;;;;;;14.82;6.47;;;;;;;-6.96;100.00;94268.25;2090107;28;20667;-80
2022/01/24 06:22:50;;;;;;;11.75;6.38;;;;;;;-6.95;100.00;94274.22;2094036;28;20032;-80
2022/01/24 06:23:51;;;;;;;11.05;5.65;;;;;;;-7.03;100.00;94273.00;2092660;28;20035;-80
2022/01/24 06:24:52;;;;;;;9.18;5.50;;;;;;;-6.85;100.00;94272.31;2104778;28;20020;-79
2022/01/24 06:25:54;;;;;;;17.42;8.95;;;;;;;-6.81;100.00;94269.13;2104955;28;20400;-79
2022/01/24 06:26:55;;;;;;;26.80;13.05;;;;;;;-6.88;100.00;94274.69;2079457;28;21692;-79
2022/01/24 06:27:56;;;;;;;38.55;16.70;;;;;;;-6.89;100.00;94278.31;2081141;28;20510;-81
2022/01/24 06:28:57;;;;;;;36.90;17.33;;;;;;;-6.94;100.00;94278.38;2087102;28;20053;-81
2022/01/24 06:29:58;;;;;;;25.17;12.60;;;;;;;-6.94;100.00;94278.38;2083849;28;20025;-81
2022/01/24 06:30:59;;;;;;;16.20;8.15;;;;;;;-6.96;100.00;94272.69;2093886;28;20079;-80